createdAt,value
2018-03-11T00:00:43.713Z,20.70
2018-03-11T00:01:43.885Z,20.80
2018-03-11T00:02:44.077Z,23.20
2018-03-11T00:03:44.246Z,21.60
2018-03-11T00:04:44.433Z,24.90
2018-03-11T00:05:44.610Z,23.00
2018-03-11T00:06:44.797Z,21.50
2018-03-11T00:07:44.978Z,21.40
2018-03-11T00:08:45.174Z,23.90
2018-03-11T00:09:45.327Z,22.00
2018-03-11T00:10:45.493Z,24.50
2018-03-11T00:11:45.686Z,25.20
2018-03-11T00:12:45.848Z,25.00
2018-03-11T00:13:46.032Z,23.50
2018-03-11T00:14:46.206Z,22.40
2018-03-11T00:15:46.398Z,23.70
2018-03-11T00:16:46.573Z,24.10
2018-03-11T00:17:46.753Z,25.50
2018-03-11T00:18:46.943Z,26.20
2018-03-11T00:19:47.113Z,24.00
2018-03-11T00:20:47.294Z,25.30
2018-03-11T00:21:47.472Z,24.60
2018-03-11T00:22:47.657Z,26.20
2018-03-11T00:23:47.835Z,27.00
2018-03-11T00:24:48.006Z,24.50
2018-03-11T00:25:48.185Z,24.00
2018-03-11T00:26:48.369Z,25.80
2018-03-11T00:27:48.545Z,24.30
2018-03-11T00:28:48.730Z,25.60
2018-03-11T00:29:48.910Z,25.90
2018-03-11T00:30:49.099Z,25.10
2018-03-11T00:31:49.280Z,25.40
2018-03-11T00:32:49.464Z,28.60
2018-03-11T00:33:49.643Z,27.10
2018-03-11T00:34:49.826Z,27.10
2018-03-11T00:35:50.010Z,24.50
2018-03-11T00:36:50.184Z,27.40
2018-03-11T00:37:50.384Z,26.70
2018-03-11T00:38:50.547Z,25.40
2018-03-11T00:39:50.726Z,25.20
2018-03-11T00:40:50.904Z,26.10
2018-03-11T00:41:51.099Z,22.70
2018-03-11T00:42:51.277Z,24.30
2018-03-11T00:43:51.437Z,25.20
2018-03-11T00:44:51.615Z,25.40
2018-03-11T00:45:51.793Z,26.50
2018-03-11T00:46:51.975Z,24.10
2018-03-11T00:47:52.158Z,27.00
2018-03-11T00:48:52.327Z,25.80
2018-03-11T00:49:52.509Z,24.60
2018-03-11T00:50:52.693Z,24.70
2018-03-11T00:51:52.886Z,24.10
2018-03-11T00:52:53.041Z,25.50
2018-03-11T00:53:53.216Z,25.60
2018-03-11T00:54:53.393Z,24.30
2018-03-11T00:55:53.572Z,25.30
2018-03-11T00:56:53.757Z,24.60
2018-03-11T00:57:53.935Z,27.10
2018-03-11T00:58:54.118Z,26.70
2018-03-11T00:59:54.302Z,24.40
2018-03-11T01:00:54.491Z,26.40
2018-03-11T01:01:54.674Z,24.10
2018-03-11T01:02:54.833Z,27.00
2018-03-11T01:03:55.247Z,26.40
2018-03-11T01:04:55.193Z,28.10
2018-03-11T01:05:55.374Z,24.50
2018-03-11T01:06:55.555Z,24.70
2018-03-11T01:07:55.734Z,26.70
2018-03-11T01:08:55.905Z,25.70
2018-03-11T01:09:56.091Z,26.50
2018-03-11T01:10:56.272Z,26.80
2018-03-11T01:11:56.450Z,24.20
2018-03-11T01:12:56.632Z,27.20
2018-03-11T01:13:56.865Z,25.80
2018-03-11T01:14:56.973Z,25.70
2018-03-11T01:15:57.137Z,25.40
2018-03-11T01:16:57.315Z,25.40
2018-03-11T01:17:57.490Z,25.50
2018-03-11T01:18:57.674Z,25.10
2018-03-11T01:19:57.854Z,23.90
2018-03-11T01:20:58.038Z,25.80
2018-03-11T01:21:58.205Z,25.60
2018-03-11T01:22:58.386Z,26.20
2018-03-11T01:23:58.568Z,26.30
2018-03-11T01:24:58.732Z,25.80
2018-03-11T01:25:58.951Z,25.90
2018-03-11T01:26:59.112Z,25.10
2018-03-11T01:27:59.248Z,26.70
2018-03-11T01:28:59.426Z,26.80
2018-03-11T01:29:59.607Z,26.80
2018-03-11T01:30:59.786Z,26.20
2018-03-11T01:31:59.963Z,25.80
2018-03-11T01:33:00.144Z,26.10
2018-03-11T01:34:00.324Z,24.60
2018-03-11T01:35:00.550Z,25.00
2018-03-11T01:36:00.688Z,25.50
2018-03-11T01:37:00.866Z,25.50
2018-03-11T01:38:01.050Z,26.60
2018-03-11T01:39:01.227Z,26.30
2018-03-11T01:40:01.415Z,25.30
2018-03-11T01:41:01.596Z,25.80
2018-03-11T01:42:01.772Z,25.00
2018-03-11T01:43:01.954Z,27.10
2018-03-11T01:44:02.137Z,25.80
2018-03-11T01:45:02.314Z,27.30
2018-03-11T01:46:02.500Z,24.30
2018-03-11T01:47:02.684Z,26.70
2018-03-11T01:48:02.855Z,25.60
2018-03-11T01:49:03.039Z,25.30
2018-03-11T01:50:03.217Z,23.10
2018-03-11T01:51:03.405Z,26.40
2018-03-11T01:52:03.581Z,24.00
2018-03-11T01:53:03.758Z,24.60
2018-03-11T01:54:03.941Z,26.50
2018-03-11T01:55:05.037Z,23.90
2018-03-11T01:56:04.338Z,25.70
2018-03-11T01:57:04.520Z,26.30
2018-03-11T01:58:04.704Z,24.80
2018-03-11T01:59:04.885Z,24.50
2018-03-11T02:00:05.070Z,25.20
2018-03-11T02:01:06.033Z,26.00
2018-03-11T02:02:05.499Z,24.60
2018-03-11T02:03:05.647Z,24.30
2018-03-11T02:04:05.826Z,25.00
2018-03-11T02:05:06.009Z,24.10
2018-03-11T02:06:06.189Z,24.90
2018-03-11T02:07:06.372Z,24.30
2018-03-11T02:08:06.566Z,26.40
2018-03-11T02:09:06.739Z,26.30
2018-03-11T02:10:06.918Z,26.40
2018-03-11T02:11:07.097Z,27.00
2018-03-11T02:12:07.277Z,27.20
2018-03-11T02:13:07.465Z,25.30
2018-03-11T02:14:07.640Z,27.20
2018-03-11T02:15:07.819Z,26.40
2018-03-11T02:16:07.988Z,23.70
2018-03-11T02:17:08.159Z,24.20
2018-03-11T02:18:08.338Z,25.80
2018-03-11T02:19:08.616Z,26.30
2018-03-11T02:20:08.737Z,24.60
2018-03-11T02:21:08.915Z,25.70
2018-03-11T02:22:09.099Z,25.00
2018-03-11T02:23:09.288Z,26.10
2018-03-11T02:24:09.471Z,24.60
2018-03-11T02:25:09.650Z,26.50
2018-03-11T02:26:09.842Z,26.10
2018-03-11T02:27:10.013Z,25.80
2018-03-11T02:28:10.199Z,26.20
2018-03-11T02:29:10.355Z,26.90
2018-03-11T02:30:10.538Z,25.80
2018-03-11T02:31:10.719Z,26.10
2018-03-11T02:32:10.903Z,27.70
2018-03-11T02:33:11.080Z,26.90
2018-03-11T02:34:11.259Z,29.50
2018-03-11T02:35:11.979Z,26.40
2018-03-11T02:36:11.604Z,24.20
2018-03-11T02:37:11.782Z,25.00
2018-03-11T02:38:11.965Z,25.40
2018-03-11T02:39:12.145Z,24.80
2018-03-11T02:40:12.324Z,25.50
2018-03-11T02:41:12.503Z,24.10
2018-03-11T02:42:12.683Z,29.00
2018-03-11T02:43:12.878Z,26.00
2018-03-11T02:44:13.053Z,27.60
2018-03-11T02:45:13.231Z,26.50
2018-03-11T02:46:13.420Z,27.60
2018-03-11T02:47:13.607Z,25.40
2018-03-11T02:48:13.790Z,25.50
2018-03-11T02:49:13.961Z,27.40
2018-03-11T02:50:14.141Z,24.50
2018-03-11T02:51:14.333Z,26.80
2018-03-11T02:52:14.507Z,25.90
2018-03-11T02:53:14.686Z,26.50
2018-03-11T02:54:14.859Z,28.00
2018-03-11T02:55:15.040Z,26.40
2018-03-11T02:56:15.464Z,27.10
2018-03-11T02:57:15.422Z,27.70
2018-03-11T02:58:15.603Z,26.00
2018-03-11T02:59:15.784Z,25.90
2018-03-11T03:00:15.963Z,24.90
2018-03-11T03:01:16.149Z,25.50
2018-03-11T03:02:16.327Z,25.50
2018-03-11T03:03:16.507Z,26.60
2018-03-11T03:04:16.688Z,24.90
2018-03-11T03:05:16.863Z,26.20
2018-03-11T03:06:17.046Z,26.00
2018-03-11T03:07:17.221Z,26.20
2018-03-11T03:08:17.392Z,25.50
2018-03-11T03:09:17.569Z,27.70
2018-03-11T03:10:18.486Z,26.20
2018-03-11T03:11:17.957Z,25.60
2018-03-11T03:12:18.133Z,25.20
2018-03-11T03:13:18.318Z,25.70
2018-03-11T03:14:18.501Z,27.40
2018-03-11T03:15:18.683Z,25.40
2018-03-11T03:16:18.866Z,26.80
2018-03-11T03:17:19.037Z,25.40
2018-03-11T03:18:19.219Z,26.00
2018-03-11T03:19:19.399Z,27.50
2018-03-11T03:20:19.576Z,27.50
2018-03-11T03:21:19.758Z,27.70
2018-03-11T03:22:19.932Z,28.00
2018-03-11T03:23:20.105Z,26.90
2018-03-11T03:24:20.292Z,25.90
2018-03-11T03:25:20.451Z,27.60
2018-03-11T03:26:20.637Z,27.20
2018-03-11T03:27:20.826Z,26.80
2018-03-11T03:28:20.995Z,29.90
2018-03-11T03:29:21.178Z,26.30
2018-03-11T03:30:21.358Z,27.10
2018-03-11T03:31:21.551Z,28.80
2018-03-11T03:32:21.726Z,28.50
2018-03-11T03:33:21.902Z,27.60
2018-03-11T03:34:22.078Z,24.90
2018-03-11T03:35:22.259Z,27.50
2018-03-11T03:36:22.445Z,28.00
2018-03-11T03:37:22.625Z,26.90
2018-03-11T03:38:22.811Z,26.80
2018-03-11T03:39:22.981Z,27.30
2018-03-11T03:40:23.410Z,28.10
2018-03-11T03:41:23.344Z,27.30
2018-03-11T03:42:23.528Z,26.70
2018-03-11T03:43:23.709Z,27.00
2018-03-11T03:44:23.886Z,28.90
2018-03-11T03:45:24.068Z,27.70
2018-03-11T03:46:24.258Z,28.60
2018-03-11T03:47:24.445Z,27.40
2018-03-11T03:48:24.621Z,27.30
2018-03-11T03:49:24.789Z,27.70
2018-03-11T03:50:25.028Z,26.90
2018-03-11T03:51:25.176Z,26.50
2018-03-11T03:52:25.359Z,26.90
2018-03-11T03:53:25.534Z,30.00
2018-03-11T03:54:25.721Z,27.90
2018-03-11T03:55:25.891Z,27.30
2018-03-11T03:56:26.074Z,28.60
2018-03-11T03:57:26.255Z,28.20
2018-03-11T03:58:26.432Z,26.60
2018-03-11T03:59:26.612Z,25.50
2018-03-11T04:00:26.796Z,29.10
2018-03-11T04:01:26.974Z,29.60
2018-03-11T04:02:27.153Z,27.30
2018-03-11T04:03:27.333Z,29.20
2018-03-11T04:04:27.514Z,28.30
2018-03-11T04:05:27.697Z,28.40
2018-03-11T04:06:27.872Z,28.10
2018-03-11T04:07:28.051Z,30.30
2018-03-11T04:08:28.237Z,27.10
2018-03-11T04:09:28.410Z,29.60
2018-03-11T04:10:28.593Z,28.90
2018-03-11T04:11:28.767Z,27.00
2018-03-11T04:12:28.956Z,28.10
2018-03-11T04:13:29.130Z,28.30
2018-03-11T04:14:29.314Z,29.20
2018-03-11T04:15:29.488Z,27.80
2018-03-11T04:16:29.670Z,27.10
2018-03-11T04:17:29.850Z,28.90
2018-03-11T04:18:30.030Z,26.20
2018-03-11T04:19:30.220Z,29.10
2018-03-11T04:20:30.402Z,29.30
2018-03-11T04:21:30.576Z,27.60
2018-03-11T04:22:30.755Z,27.50
2018-03-11T04:23:30.933Z,28.70
2018-03-11T04:24:31.126Z,27.40
2018-03-11T04:25:31.289Z,29.50
2018-03-11T04:26:31.469Z,28.90
2018-03-11T04:27:31.647Z,29.20
2018-03-11T04:28:31.832Z,29.90
2018-03-11T04:29:32.013Z,30.10
2018-03-11T04:30:32.197Z,29.50
2018-03-11T04:31:32.371Z,30.00
2018-03-11T04:32:32.557Z,29.50
2018-03-11T04:33:32.732Z,28.10
2018-03-11T04:34:32.911Z,26.40
2018-03-11T04:35:33.088Z,26.70
2018-03-11T04:36:33.270Z,23.40
2018-03-11T04:37:33.452Z,22.80
2018-03-11T04:38:33.630Z,24.30
2018-03-11T04:39:33.809Z,23.90
2018-03-11T04:40:33.987Z,24.10
2018-03-11T04:41:34.169Z,25.10
2018-03-11T04:42:34.345Z,24.80
2018-03-11T04:43:34.526Z,23.20
2018-03-11T04:44:34.711Z,24.50
2018-03-11T04:45:34.886Z,24.50
2018-03-11T04:46:35.071Z,23.00
2018-03-11T04:47:35.250Z,24.20
2018-03-11T04:48:35.432Z,23.40
2018-03-11T04:49:35.612Z,23.40
2018-03-11T04:50:35.798Z,24.40
2018-03-11T04:51:35.966Z,23.00
2018-03-11T04:52:36.150Z,23.80
2018-03-11T04:53:36.327Z,25.20
2018-03-11T04:54:36.511Z,23.30
2018-03-11T04:55:36.689Z,23.50
2018-03-11T04:56:36.878Z,22.20
2018-03-11T04:57:37.047Z,24.10
2018-03-11T04:58:37.472Z,25.20
2018-03-11T04:59:37.405Z,22.20
2018-03-11T05:00:37.599Z,21.10
2018-03-11T05:01:37.773Z,22.60
2018-03-11T05:02:37.951Z,21.90
2018-03-11T05:03:38.135Z,22.30
2018-03-11T05:04:38.307Z,22.00
2018-03-11T05:05:38.489Z,22.10
2018-03-11T05:06:38.668Z,20.90
2018-03-11T05:07:38.847Z,23.00
2018-03-11T05:08:39.028Z,21.20
2018-03-11T05:09:39.203Z,22.40
2018-03-11T05:10:39.381Z,21.40
2018-03-11T05:11:39.565Z,21.90
2018-03-11T05:12:39.746Z,23.50
2018-03-11T05:13:39.921Z,21.80
2018-03-11T05:14:40.100Z,23.70
2018-03-11T05:15:40.278Z,21.90
2018-03-11T05:16:40.457Z,21.20
2018-03-11T05:17:40.643Z,20.00
2018-03-11T05:18:40.822Z,20.90
2018-03-11T05:19:41.006Z,21.20
2018-03-11T05:20:41.184Z,21.90
2018-03-11T05:21:41.364Z,24.20
2018-03-11T05:22:41.546Z,22.60
2018-03-11T05:23:41.717Z,24.60
2018-03-11T05:24:41.906Z,25.00
2018-03-11T05:25:42.084Z,24.50
2018-03-11T05:26:42.263Z,26.00
2018-03-11T05:27:42.445Z,22.80
2018-03-11T05:28:42.620Z,23.70
2018-03-11T05:29:42.799Z,23.90
2018-03-11T05:30:42.981Z,24.90
2018-03-11T05:31:43.159Z,25.60
2018-03-11T05:32:43.341Z,24.30
2018-03-11T05:33:43.520Z,23.10
2018-03-11T05:34:43.707Z,24.10
2018-03-11T05:35:43.880Z,26.20
2018-03-11T05:36:44.061Z,26.00
2018-03-11T05:37:44.229Z,24.90
2018-03-11T05:38:44.423Z,27.70
2018-03-11T05:39:44.606Z,28.20
2018-03-11T05:40:44.778Z,26.70
2018-03-11T05:41:44.958Z,26.90
2018-03-11T05:42:45.143Z,28.70
2018-03-11T05:43:45.317Z,28.20
2018-03-11T05:44:45.501Z,28.20
2018-03-11T05:45:45.679Z,26.50
2018-03-11T05:46:45.859Z,27.30
2018-03-11T05:47:46.042Z,25.90
2018-03-11T05:48:46.222Z,26.10
2018-03-11T05:49:46.396Z,27.70
2018-03-11T05:50:46.573Z,27.80
2018-03-11T05:51:46.755Z,27.10
2018-03-11T05:52:46.935Z,26.80
2018-03-11T05:53:47.118Z,25.60
2018-03-11T05:54:47.294Z,24.50
2018-03-11T05:55:47.468Z,26.20
2018-03-11T05:56:47.657Z,28.50
2018-03-11T05:57:47.829Z,25.20
2018-03-11T05:58:48.007Z,26.60
2018-03-11T05:59:48.176Z,25.70
2018-03-11T06:00:48.362Z,24.80
2018-03-11T06:01:48.531Z,26.30
2018-03-11T06:02:48.709Z,26.70
2018-03-11T06:03:48.888Z,26.30
2018-03-11T06:04:49.058Z,27.90
2018-03-11T06:05:49.226Z,27.60
2018-03-11T06:06:49.410Z,26.20
2018-03-11T06:07:49.591Z,27.10
2018-03-11T06:08:50.528Z,25.50
2018-03-11T06:09:49.942Z,29.40
2018-03-11T06:10:50.126Z,30.10
2018-03-11T06:11:50.302Z,28.70
2018-03-11T06:12:50.491Z,27.40
2018-03-11T06:13:50.662Z,29.10
2018-03-11T06:14:50.840Z,25.00
2018-03-11T06:15:51.023Z,25.00
2018-03-11T06:16:51.250Z,24.90
2018-03-11T06:17:51.381Z,21.70
2018-03-11T06:18:51.571Z,24.20
2018-03-11T06:19:51.732Z,22.50
2018-03-11T06:20:51.911Z,21.50
2018-03-11T06:21:52.085Z,24.20
2018-03-11T06:22:52.265Z,23.30
2018-03-11T06:23:52.453Z,25.20
2018-03-11T06:24:52.633Z,24.90
2018-03-11T06:25:52.868Z,26.10
2018-03-11T06:26:53.002Z,28.70
2018-03-11T06:27:53.181Z,28.20
2018-03-11T06:28:53.358Z,32.50
2018-03-11T06:29:53.547Z,27.60
2018-03-11T06:30:53.696Z,26.80
2018-03-11T06:31:53.878Z,24.30
2018-03-11T06:32:54.056Z,24.60
2018-03-11T06:33:54.238Z,24.30
2018-03-11T06:34:54.416Z,24.70
2018-03-11T06:35:54.599Z,28.20
2018-03-11T06:36:54.792Z,24.40
2018-03-11T06:37:54.957Z,29.50
2018-03-11T06:38:55.198Z,29.90
2018-03-11T06:39:55.324Z,31.50
2018-03-11T06:40:55.496Z,33.30
2018-03-11T06:41:55.674Z,33.20
2018-03-11T06:42:55.854Z,31.80
2018-03-11T06:43:56.040Z,31.70
2018-03-11T06:44:56.222Z,32.30
2018-03-11T06:45:56.400Z,36.60
2018-03-11T06:46:56.594Z,31.90
2018-03-11T06:47:56.768Z,35.90
2018-03-11T06:48:56.937Z,37.70
2018-03-11T06:49:57.123Z,41.60
2018-03-11T06:50:57.305Z,49.60
2018-03-11T06:51:57.481Z,40.40
2018-03-11T06:52:57.658Z,38.80
2018-03-11T06:53:57.837Z,35.80
2018-03-11T06:54:58.023Z,34.60
2018-03-11T06:55:58.205Z,32.10
2018-03-11T06:56:58.378Z,33.00
2018-03-11T06:57:58.563Z,35.30
2018-03-11T06:58:58.741Z,34.50
2018-03-11T06:59:58.925Z,34.00
2018-03-11T07:00:59.109Z,32.50
2018-03-11T07:01:59.283Z,32.20
2018-03-11T07:02:59.465Z,30.60
2018-03-11T07:03:59.653Z,32.50
2018-03-11T07:04:59.824Z,27.90
2018-03-11T07:06:00.008Z,26.30
2018-03-11T07:07:00.183Z,25.60
2018-03-11T07:08:00.367Z,24.50
2018-03-11T07:09:00.548Z,27.20
2018-03-11T07:10:00.728Z,25.70
2018-03-11T07:11:00.917Z,26.00
2018-03-11T07:12:01.088Z,26.00
2018-03-11T07:13:01.275Z,24.80
2018-03-11T07:14:01.454Z,24.10
2018-03-11T07:15:01.633Z,23.70
2018-03-11T07:16:01.818Z,23.70
2018-03-11T07:17:02.000Z,22.90
2018-03-11T07:18:02.181Z,21.80
2018-03-11T07:19:02.358Z,23.80
2018-03-11T07:20:02.554Z,19.30
2018-03-11T07:21:02.721Z,19.00
2018-03-11T07:22:02.898Z,17.40
2018-03-11T07:23:03.065Z,16.50
2018-03-11T07:24:03.251Z,16.00
2018-03-11T07:25:03.430Z,17.40
2018-03-11T07:26:03.611Z,16.50
2018-03-11T07:27:03.802Z,16.60
2018-03-11T07:28:03.976Z,15.90
2018-03-11T07:29:04.164Z,17.30
2018-03-11T07:30:04.339Z,16.90
2018-03-11T07:31:04.524Z,16.10
2018-03-11T07:32:04.722Z,17.20
2018-03-11T07:33:04.902Z,16.30
2018-03-11T07:34:05.085Z,15.30
2018-03-11T07:35:05.268Z,18.00
2018-03-11T07:36:05.450Z,16.60
2018-03-11T07:37:05.632Z,17.20
2018-03-11T07:38:05.821Z,15.80
2018-03-11T07:39:05.994Z,16.60
2018-03-11T07:40:06.174Z,15.80
2018-03-11T07:41:06.361Z,16.20
2018-03-11T07:42:06.546Z,15.00
2018-03-11T07:43:06.753Z,15.20
2018-03-11T07:44:06.912Z,15.20
2018-03-11T07:45:07.097Z,14.90
2018-03-11T07:46:07.271Z,15.10
2018-03-11T07:47:07.453Z,14.60
2018-03-11T07:48:07.643Z,14.50
2018-03-11T07:49:07.823Z,13.50
2018-03-11T07:50:08.010Z,14.30
2018-03-11T07:51:08.189Z,13.70
2018-03-11T07:52:08.370Z,13.00
2018-03-11T07:53:08.548Z,13.00
2018-03-11T07:54:08.732Z,13.10
2018-03-11T07:55:08.936Z,12.90
2018-03-11T07:56:09.093Z,13.00
2018-03-11T07:57:09.273Z,13.10
2018-03-11T07:58:09.455Z,12.70
2018-03-11T07:59:09.649Z,11.90
2018-03-11T08:00:09.819Z,12.40
2018-03-11T08:01:10.009Z,12.00
2018-03-11T08:02:10.185Z,11.40
2018-03-11T08:03:10.368Z,11.80
2018-03-11T08:04:10.554Z,12.00
2018-03-11T08:05:10.743Z,11.60
2018-03-11T08:06:10.924Z,11.10
2018-03-11T08:07:11.109Z,11.20
2018-03-11T08:08:11.334Z,12.60
2018-03-11T08:09:11.477Z,11.40
2018-03-11T08:10:11.661Z,11.60
2018-03-11T08:11:11.849Z,11.30
2018-03-11T08:12:12.030Z,11.40
2018-03-11T08:13:12.212Z,11.10
2018-03-11T08:14:12.398Z,12.50
2018-03-11T08:15:12.583Z,11.70
2018-03-11T08:16:12.781Z,11.30
2018-03-11T08:17:12.958Z,11.40
2018-03-11T08:18:13.140Z,11.50
2018-03-11T08:19:13.315Z,12.90
2018-03-11T08:20:13.511Z,12.50
2018-03-11T08:21:13.691Z,12.60
2018-03-11T08:22:13.856Z,14.60
2018-03-11T08:23:14.051Z,13.20
2018-03-11T08:24:14.226Z,12.80
2018-03-11T08:25:14.414Z,12.80
2018-03-11T08:26:14.590Z,13.40
2018-03-11T08:27:14.776Z,14.50
2018-03-11T08:28:14.960Z,13.90
2018-03-11T08:29:15.143Z,14.20
2018-03-11T08:30:15.332Z,12.90
2018-03-11T08:31:15.514Z,14.10
2018-03-11T08:32:15.700Z,13.00
2018-03-11T08:33:15.880Z,13.90
2018-03-11T08:34:16.068Z,13.50
2018-03-11T08:35:16.246Z,13.30
2018-03-11T08:36:16.425Z,13.00
2018-03-11T08:37:16.608Z,13.80
2018-03-11T08:38:16.793Z,13.80
2018-03-11T08:39:16.986Z,12.90
2018-03-11T08:40:17.165Z,13.50
2018-03-11T08:41:17.341Z,13.40
2018-03-11T08:42:17.522Z,13.00
2018-03-11T08:43:17.710Z,14.00
2018-03-11T08:44:17.891Z,14.60
2018-03-11T08:45:18.143Z,13.00
2018-03-11T08:46:18.254Z,14.10
2018-03-11T08:47:18.443Z,12.80
2018-03-11T08:48:18.635Z,12.90
2018-03-11T08:49:18.809Z,13.70
2018-03-11T08:50:18.993Z,12.90
2018-03-11T08:51:19.179Z,13.70
2018-03-11T08:52:19.365Z,14.20
2018-03-11T08:53:19.555Z,14.00
2018-03-11T08:54:19.735Z,14.50
2018-03-11T08:55:19.935Z,13.60
2018-03-11T08:56:20.111Z,13.30
2018-03-11T08:57:20.296Z,14.50
2018-03-11T08:58:20.479Z,13.80
2018-03-11T08:59:20.678Z,14.80
2018-03-11T09:00:20.916Z,13.60
2018-03-11T09:01:21.046Z,13.90
2018-03-11T09:02:21.228Z,14.20
2018-03-11T09:03:21.413Z,13.10
2018-03-11T09:04:21.595Z,13.20
2018-03-11T09:05:21.796Z,12.70
2018-03-11T09:06:21.964Z,14.30
2018-03-11T09:07:22.148Z,13.30
2018-03-11T09:08:22.338Z,13.60
2018-03-11T09:09:22.518Z,12.90
2018-03-11T09:10:22.751Z,13.00
2018-03-11T09:11:22.900Z,12.50
2018-03-11T09:12:23.077Z,12.60
2018-03-11T09:13:23.263Z,14.40
2018-03-11T09:14:23.450Z,12.30
2018-03-11T09:15:23.647Z,12.80
2018-03-11T09:16:23.817Z,12.70
2018-03-11T09:17:24.005Z,12.10
2018-03-11T09:18:24.188Z,11.30
2018-03-11T09:19:24.373Z,12.10
2018-03-11T09:20:24.563Z,12.40
2018-03-11T09:21:25.612Z,11.20
2018-03-11T09:22:24.939Z,11.00
2018-03-11T09:23:25.109Z,10.90
2018-03-11T09:24:25.338Z,10.80
2018-03-11T09:25:25.480Z,10.80
2018-03-11T09:26:25.664Z,11.80
2018-03-11T09:27:25.853Z,10.50
2018-03-11T09:28:26.037Z,10.30
2018-03-11T09:29:26.241Z,10.60
2018-03-11T09:30:26.414Z,10.00
2018-03-11T09:31:26.604Z,10.50
2018-03-11T09:32:26.783Z,9.70
2018-03-11T09:33:26.985Z,10.30
2018-03-11T09:34:27.155Z,10.70
2018-03-11T09:35:27.374Z,10.10
2018-03-11T09:36:27.529Z,9.40
2018-03-11T09:37:27.721Z,9.70
2018-03-11T09:38:27.910Z,9.90
2018-03-11T09:39:28.100Z,9.70
2018-03-11T09:40:28.287Z,9.80
2018-03-11T09:41:28.476Z,9.00
2018-03-11T09:42:28.669Z,10.00
2018-03-11T09:43:28.855Z,10.10
2018-03-11T09:44:29.044Z,9.20
2018-03-11T09:45:29.591Z,9.20
2018-03-11T09:46:29.417Z,9.50
2018-03-11T09:47:29.600Z,8.70
2018-03-11T09:48:29.796Z,8.70
2018-03-11T09:49:29.986Z,9.20
2018-03-11T09:50:30.166Z,8.90
2018-03-11T09:51:30.355Z,8.70
2018-03-11T09:52:30.552Z,9.00
2018-03-11T09:53:30.740Z,11.10
2018-03-11T09:54:30.932Z,9.30
2018-03-11T09:55:31.121Z,9.00
2018-03-11T09:56:31.312Z,9.40
2018-03-11T09:57:31.498Z,9.20
2018-03-11T09:58:31.690Z,9.20
2018-03-11T09:59:31.882Z,9.00
2018-03-11T10:00:32.098Z,9.50
2018-03-11T10:01:32.273Z,9.50
2018-03-11T10:02:32.463Z,9.10
2018-03-11T10:03:32.656Z,9.20
2018-03-11T10:04:32.844Z,9.50
2018-03-11T10:05:33.033Z,9.80
2018-03-11T10:07:33.402Z,10.20
2018-03-11T10:08:33.590Z,9.40
2018-03-11T10:09:33.765Z,8.60
2018-03-11T10:10:33.995Z,8.80
2018-03-11T10:11:34.144Z,9.00
2018-03-11T10:12:34.330Z,8.20
2018-03-11T10:13:34.526Z,8.50
2018-03-11T10:14:34.707Z,8.10
2018-03-11T10:15:34.911Z,8.80
2018-03-11T10:16:35.094Z,10.60
2018-03-11T10:17:35.283Z,15.30
2018-03-11T10:18:35.466Z,7.50
2018-03-11T10:19:35.651Z,7.60
2018-03-11T10:20:35.844Z,6.90
2018-03-11T10:21:36.035Z,7.20
2018-03-11T10:22:36.267Z,6.90
2018-03-11T10:23:36.417Z,6.80
2018-03-11T10:24:36.608Z,7.40
2018-03-11T10:25:36.801Z,7.30
2018-03-11T10:26:36.993Z,9.00
2018-03-11T10:27:37.213Z,23.50
2018-03-11T10:28:37.364Z,10.70
2018-03-11T10:29:37.554Z,60.00
2018-03-11T10:30:37.745Z,121.50
2018-03-11T10:31:37.936Z,19.20
2018-03-11T10:32:38.128Z,34.60
2018-03-11T10:33:38.324Z,37.80
2018-03-11T10:34:38.508Z,55.40
2018-03-11T10:35:38.709Z,26.20
2018-03-11T10:36:38.946Z,16.30
2018-03-11T10:37:39.080Z,14.00
2018-03-11T10:38:39.279Z,11.60
2018-03-11T10:39:39.487Z,7.00
2018-03-11T10:40:39.671Z,23.30
2018-03-11T10:41:39.866Z,29.80
2018-03-11T10:42:40.056Z,13.10
2018-03-11T10:43:40.276Z,10.50
2018-03-11T10:44:40.440Z,7.60
2018-03-11T10:45:40.621Z,7.30
2018-03-11T10:46:40.813Z,22.20
2018-03-11T10:47:41.008Z,40.90
2018-03-11T10:48:41.193Z,29.40
2018-03-11T10:49:41.375Z,6.50
2018-03-11T10:50:41.557Z,90.00
2018-03-11T10:51:41.754Z,23.20
2018-03-11T10:52:41.940Z,6.70
2018-03-11T10:53:42.122Z,6.60
2018-03-11T10:54:42.300Z,7.90
2018-03-11T10:55:42.511Z,6.40
2018-03-11T10:56:42.676Z,6.10
2018-03-11T10:57:42.872Z,4.90
2018-03-11T10:58:43.057Z,6.70
2018-03-11T10:59:43.256Z,106.20
2018-03-11T11:00:43.475Z,97.70
2018-03-11T11:01:43.641Z,52.70
2018-03-11T11:02:43.815Z,18.40
2018-03-11T11:03:44.023Z,12.60
2018-03-11T11:04:44.160Z,8.40
2018-03-11T11:05:44.350Z,12.80
2018-03-11T11:06:44.535Z,8.80
2018-03-11T11:07:44.720Z,27.10
2018-03-11T11:08:44.926Z,11.10
2018-03-11T11:09:45.091Z,5.70
2018-03-11T11:10:45.270Z,5.20
2018-03-11T11:11:45.488Z,4.90
2018-03-11T11:12:45.656Z,4.80
2018-03-11T11:13:45.849Z,5.50
2018-03-11T11:14:46.021Z,6.50
2018-03-11T11:15:46.214Z,4.80
2018-03-11T11:16:46.396Z,3.30
2018-03-11T11:17:46.582Z,1.80
2018-03-11T11:18:46.764Z,2.50
2018-03-11T11:19:46.954Z,2.50
2018-03-11T11:20:47.140Z,2.10
2018-03-11T11:21:47.326Z,2.50
2018-03-11T11:22:47.501Z,3.00
2018-03-11T11:23:47.701Z,2.00
2018-03-11T11:24:47.865Z,1.80
2018-03-11T11:25:48.052Z,1.50
2018-03-11T11:26:48.236Z,1.80
2018-03-11T11:27:48.425Z,1.60
2018-03-11T11:28:48.628Z,2.00
2018-03-11T11:29:48.820Z,1.30
2018-03-11T11:30:48.995Z,2.50
2018-03-11T11:31:49.197Z,7.60
2018-03-11T11:32:49.365Z,2.30
2018-03-11T11:33:49.571Z,5.10
2018-03-11T11:34:49.750Z,3.00
2018-03-11T11:35:49.934Z,2.80
2018-03-11T11:36:50.110Z,2.20
2018-03-11T11:37:50.297Z,2.90
2018-03-11T11:38:50.481Z,2.20
2018-03-11T11:39:50.667Z,2.70
2018-03-11T11:40:50.855Z,12.90
2018-03-11T11:41:51.052Z,3.90
2018-03-11T11:42:51.242Z,3.70
2018-03-11T11:43:51.429Z,4.20
2018-03-11T11:44:51.609Z,3.20
2018-03-11T11:45:51.793Z,3.40
2018-03-11T11:46:51.981Z,4.10
2018-03-11T11:47:52.187Z,3.70
2018-03-11T11:48:52.348Z,3.40
2018-03-11T11:49:52.534Z,4.00
2018-03-11T11:50:52.723Z,4.60
2018-03-11T11:51:52.937Z,3.50
2018-03-11T11:52:53.106Z,4.90
2018-03-11T11:53:53.289Z,2.80
2018-03-11T11:54:53.477Z,3.70
2018-03-11T11:55:53.656Z,3.50
2018-03-11T11:56:53.842Z,3.10
2018-03-11T11:57:54.034Z,4.20
2018-03-11T11:58:54.222Z,3.60
2018-03-11T11:59:54.405Z,3.30
2018-03-11T12:00:54.581Z,2.90
2018-03-11T12:01:54.769Z,2.80
2018-03-11T12:02:54.969Z,2.50
2018-03-11T12:03:55.132Z,4.20
2018-03-11T12:04:55.315Z,2.30
2018-03-11T12:05:55.491Z,2.40
2018-03-11T12:06:55.688Z,2.20
2018-03-11T12:07:55.864Z,2.60
2018-03-11T12:08:56.053Z,3.10
2018-03-11T12:09:56.242Z,2.50
2018-03-11T12:10:56.428Z,4.00
2018-03-11T12:11:56.611Z,5.20
2018-03-11T12:12:56.800Z,4.50
2018-03-11T12:13:56.991Z,3.20
2018-03-11T12:14:57.183Z,3.40
2018-03-11T12:15:57.352Z,2.50
2018-03-11T12:16:57.591Z,1.70
2018-03-11T12:17:57.712Z,2.30
2018-03-11T12:18:57.901Z,1.70
2018-03-11T12:19:58.082Z,5.80
2018-03-11T12:20:58.265Z,7.00
2018-03-11T12:21:58.454Z,5.30
2018-03-11T12:22:58.648Z,3.40
2018-03-11T12:23:58.832Z,3.40
2018-03-11T12:24:59.016Z,3.60
2018-03-11T12:25:59.204Z,2.40
2018-03-11T12:26:59.387Z,3.10
2018-03-11T12:27:59.533Z,2.90
2018-03-11T12:28:59.723Z,1.80
2018-03-11T12:29:59.900Z,2.00
2018-03-11T12:31:00.084Z,3.00
2018-03-11T12:32:00.269Z,2.80
2018-03-11T12:33:00.454Z,2.70
2018-03-11T12:34:00.640Z,2.70
2018-03-11T12:35:00.835Z,6.80
2018-03-11T12:36:01.002Z,7.50
2018-03-11T12:37:01.188Z,7.80
2018-03-11T12:38:01.371Z,5.30
2018-03-11T12:39:01.554Z,4.50
2018-03-11T12:40:01.731Z,7.10
2018-03-11T12:41:01.979Z,4.70
2018-03-11T12:42:02.104Z,3.70
2018-03-11T12:43:02.289Z,2.60
2018-03-11T12:44:02.489Z,3.40
2018-03-11T12:45:02.666Z,5.00
2018-03-11T12:46:02.836Z,3.30
2018-03-11T12:47:03.020Z,3.40
2018-03-11T12:48:03.203Z,2.80
2018-03-11T12:49:03.385Z,3.30
2018-03-11T12:50:03.562Z,2.90
2018-03-11T12:51:03.765Z,3.30
2018-03-11T12:52:03.939Z,4.00
2018-03-11T12:53:04.120Z,3.60
2018-03-11T12:54:04.306Z,4.50
2018-03-11T12:55:04.490Z,3.90
2018-03-11T12:56:04.692Z,4.60
2018-03-11T12:58:05.074Z,2.90
2018-03-11T12:59:05.244Z,2.80
2018-03-11T13:00:05.436Z,3.10
2018-03-11T13:01:05.607Z,3.10
2018-03-11T13:02:05.797Z,2.80
2018-03-11T13:03:05.987Z,3.80